Terminal Aerodrome Forecast
Issued by NWS

Home | Current Version | Previous Version | Text Only | Print | Product List | Glossary On
Versions: 1 2 3 4 5 6 7 8 9 10 11 12 13 14 15 16 17 18 19 20 21 22
000
FTUS43 KGRB 230500 AAA
TAFCWA
TAF AMD
KCWA 230548Z 2306/2406 VRB03KT P6SM SKC
      TEMPO 2306/2308 1/2SM FG VV002
     FM230800 VRB02KT 4SM BR SCT001
      TEMPO 2308/2312 1/4SM FG VV001
     FM231400 20007KT P6SM FEW050
     FM240000 15004KT P6SM BKN250
      AMD LTD TO CLD VIS AND WIND TIL 231200=

USA.gov is the U.S. government's official web portal to all federal, state and local government web resources and services.